createdAt,value
2024-02-15T00:01:54.696Z,2.30
2024-02-15T00:04:43.843Z,2.60
2024-02-15T00:07:32.234Z,2.35
2024-02-15T00:10:24.491Z,2.30
2024-02-15T00:13:13.166Z,2.23
2024-02-15T00:16:02.150Z,2.40
2024-02-15T00:18:51.228Z,2.23
2024-02-15T00:21:39.735Z,2.27
2024-02-15T00:24:28.502Z,2.40
2024-02-15T00:27:18.294Z,2.50
2024-02-15T00:30:09.319Z,2.43
2024-02-15T00:32:58.273Z,2.00
2024-02-15T00:35:47.114Z,2.53
2024-02-15T00:38:36.309Z,2.10
2024-02-15T00:41:24.813Z,2.50
2024-02-15T00:44:14.747Z,2.30
2024-02-15T00:47:03.682Z,2.00
2024-02-15T00:49:52.698Z,2.37
2024-02-15T00:52:41.287Z,2.23
2024-02-15T00:55:29.861Z,2.40
2024-02-15T00:58:18.325Z,2.47
2024-02-15T01:01:08.574Z,2.60
2024-02-15T01:03:57.221Z,2.43
2024-02-15T01:06:46.341Z,2.65
2024-02-15T01:09:34.842Z,2.40
2024-02-15T01:12:23.422Z,2.57
2024-02-15T01:15:12.176Z,2.97
2024-02-15T01:18:02.640Z,2.63
2024-02-15T01:20:51.141Z,2.60
2024-02-15T01:23:39.669Z,2.40
2024-02-15T01:26:28.406Z,2.67
2024-02-15T01:29:16.791Z,3.00
2024-02-15T01:32:06.349Z,3.03
2024-02-15T01:34:56.445Z,3.15
2024-02-15T01:37:44.919Z,2.97
2024-02-15T01:40:33.517Z,3.00
2024-02-15T01:43:22.002Z,3.07
2024-02-15T01:46:11.837Z,2.93
2024-02-15T01:49:00.430Z,2.90
2024-02-15T01:51:51.730Z,3.27
2024-02-15T01:54:40.861Z,2.88
2024-02-15T01:57:31.268Z,2.97
2024-02-15T02:00:21.091Z,3.10
2024-02-15T02:03:13.035Z,3.10
2024-02-15T02:06:03.136Z,3.00
2024-02-15T02:08:53.149Z,2.77
2024-02-15T02:11:41.773Z,3.07
2024-02-15T02:14:30.324Z,3.00
2024-02-15T02:17:21.188Z,2.90
2024-02-15T02:20:12.548Z,3.43
2024-02-15T02:23:08.762Z,3.27
2024-02-15T02:25:59.727Z,3.23
2024-02-15T02:28:48.214Z,3.20
2024-02-15T02:31:37.037Z,2.93
2024-02-15T02:34:26.042Z,3.15
2024-02-15T02:37:15.224Z,2.93
2024-02-15T02:40:04.072Z,3.00
2024-02-15T02:42:57.548Z,2.97
2024-02-15T02:45:46.731Z,3.17
2024-02-15T02:48:35.258Z,2.80
2024-02-15T02:51:24.049Z,3.93
2024-02-15T02:54:12.739Z,3.30
2024-02-15T02:57:01.242Z,3.30
2024-02-15T02:59:51.166Z,3.30
2024-02-15T03:02:39.569Z,3.30
2024-02-15T03:05:28.390Z,3.03
2024-02-15T03:08:18.716Z,3.00
2024-02-15T03:11:07.155Z,3.50
2024-02-15T03:13:55.608Z,3.43
2024-02-15T03:16:45.389Z,2.90
2024-02-15T03:19:33.743Z,3.47
2024-02-15T03:22:26.662Z,3.63
2024-02-15T03:25:15.107Z,3.40
2024-02-15T03:28:05.106Z,3.00
2024-02-15T03:30:54.035Z,3.40
2024-02-15T03:33:44.067Z,3.22
2024-02-15T03:36:32.691Z,3.23
2024-02-15T03:39:21.110Z,3.20
2024-02-15T03:42:09.754Z,3.13
2024-02-15T03:44:58.349Z,2.90
2024-02-15T03:47:51.563Z,2.90
2024-02-15T03:50:41.646Z,3.23
2024-02-15T03:53:31.535Z,3.37
2024-02-15T03:56:20.851Z,3.37
2024-02-15T03:59:09.390Z,3.00
2024-02-15T04:01:58.295Z,3.20
2024-02-15T04:04:48.549Z,3.00
2024-02-15T04:07:38.513Z,3.10
2024-02-15T04:10:26.938Z,3.30
2024-02-15T04:13:15.288Z,3.20
2024-02-15T04:16:03.921Z,3.30
2024-02-15T04:18:52.422Z,3.22
2024-02-15T04:21:41.607Z,3.63
2024-02-15T04:24:31.464Z,3.70
2024-02-15T04:27:22.018Z,3.40
2024-02-15T04:30:12.331Z,3.45
2024-02-15T04:33:01.444Z,3.03
2024-02-15T04:35:52.685Z,3.60
2024-02-15T04:38:41.878Z,3.27
2024-02-15T04:41:31.861Z,3.33
2024-02-15T04:44:21.442Z,3.50
2024-02-15T04:47:09.917Z,3.70
2024-02-15T04:49:58.271Z,3.60
2024-02-15T04:52:46.882Z,3.20
2024-02-15T04:55:36.770Z,3.50
2024-02-15T04:58:26.427Z,3.50
2024-02-15T05:01:17.843Z,3.40
2024-02-15T05:04:08.626Z,3.60
2024-02-15T05:06:57.575Z,3.20
2024-02-15T05:09:45.939Z,3.37
2024-02-15T05:12:35.834Z,3.40
2024-02-15T05:15:26.867Z,3.57
2024-02-15T05:18:15.447Z,3.50
2024-02-15T05:21:04.811Z,4.30
2024-02-15T05:23:54.301Z,3.80
2024-02-15T05:26:44.534Z,4.00
2024-02-15T05:29:35.160Z,3.93
2024-02-15T05:32:25.291Z,3.43
2024-02-15T05:35:14.178Z,3.10
2024-02-15T05:38:05.220Z,2.70
2024-02-15T05:40:53.712Z,3.10
2024-02-15T05:43:43.341Z,3.50
2024-02-15T05:46:32.107Z,3.55
2024-02-15T05:49:25.144Z,3.53
2024-02-15T05:52:14.004Z,3.20
2024-02-15T05:55:03.692Z,3.20
2024-02-15T05:57:52.202Z,3.40
2024-02-15T06:00:42.442Z,3.20
2024-02-15T06:03:32.967Z,3.30
2024-02-15T06:06:23.042Z,3.70
2024-02-15T06:09:11.624Z,3.10
2024-02-15T06:11:59.964Z,3.53
2024-02-15T06:14:48.586Z,3.20
2024-02-15T06:17:39.847Z,3.57
2024-02-15T06:20:31.237Z,3.57
2024-02-15T06:23:21.076Z,3.50
2024-02-15T06:26:09.614Z,3.13
2024-02-15T06:29:15.464Z,2.40
2024-02-15T06:32:21.387Z,2.80
2024-02-15T06:35:27.936Z,2.10
2024-02-15T06:38:33.778Z,2.30
2024-02-15T06:41:26.020Z,2.73
2024-02-15T06:44:15.612Z,3.33
2024-02-15T06:47:04.082Z,3.40
2024-02-15T06:49:55.269Z,3.20
2024-02-15T06:52:43.830Z,3.80
2024-02-15T06:55:32.419Z,3.47
2024-02-15T06:58:22.329Z,3.90
2024-02-15T07:01:10.909Z,3.87
2024-02-15T07:03:59.982Z,3.60
2024-02-15T07:06:49.441Z,3.67
2024-02-15T07:09:37.963Z,3.93
2024-02-15T07:12:26.640Z,3.80
2024-02-15T07:15:18.105Z,3.77
2024-02-15T07:18:07.492Z,3.67
2024-02-15T07:20:58.364Z,3.60
2024-02-15T07:23:47.553Z,3.30
2024-02-15T07:26:37.638Z,3.50
2024-02-15T07:29:26.832Z,3.83
2024-02-15T07:32:17.958Z,3.40
2024-02-15T07:35:08.934Z,3.20
2024-02-15T07:37:59.928Z,3.50
2024-02-15T07:40:48.473Z,3.60
2024-02-15T07:43:36.846Z,3.30
2024-02-15T07:46:25.539Z,3.80
2024-02-15T07:49:16.057Z,3.50
2024-02-15T07:52:05.459Z,3.40
2024-02-15T07:54:53.982Z,3.70
2024-02-15T07:57:42.446Z,3.67
2024-02-15T08:00:31.350Z,3.67
2024-02-15T08:03:20.250Z,3.40
2024-02-15T08:06:10.909Z,3.50
2024-02-15T08:08:59.490Z,3.23
2024-02-15T08:11:47.923Z,3.00
2024-02-15T08:14:36.286Z,3.50
2024-02-15T08:17:24.654Z,3.13
2024-02-15T08:20:13.613Z,3.10
2024-02-15T08:23:03.493Z,3.03
2024-02-15T08:25:53.553Z,3.60
2024-02-15T08:28:41.972Z,3.20
2024-02-15T08:31:31.650Z,3.20
2024-02-15T08:34:21.291Z,3.22
2024-02-15T08:37:09.763Z,3.63
2024-02-15T08:40:00.982Z,3.40
2024-02-15T08:42:49.333Z,3.23
2024-02-15T08:45:37.781Z,3.40
2024-02-15T08:48:26.482Z,2.90
2024-02-15T08:51:15.257Z,3.20
2024-02-15T08:54:03.693Z,2.90
2024-02-15T08:56:54.071Z,3.20
2024-02-15T08:59:43.997Z,3.30
2024-02-15T09:02:34.239Z,3.30
2024-02-15T09:05:23.580Z,2.90
2024-02-15T09:08:12.635Z,3.37
2024-02-15T09:11:01.029Z,3.30
2024-02-15T09:13:52.773Z,3.23
2024-02-15T09:16:41.743Z,3.00
2024-02-15T09:19:30.406Z,3.10
2024-02-15T09:22:19.963Z,2.90
2024-02-15T09:25:09.781Z,3.20
2024-02-15T09:27:58.264Z,3.30
2024-02-15T09:30:48.314Z,3.20
2024-02-15T09:33:36.790Z,3.20
2024-02-15T09:36:25.247Z,3.30
2024-02-15T09:39:15.393Z,3.30
2024-02-15T09:42:04.974Z,3.60
2024-02-15T09:44:53.648Z,2.97
2024-02-15T09:47:44.218Z,3.40
2024-02-15T09:50:36.698Z,3.30
2024-02-15T09:53:27.077Z,3.30
2024-02-15T09:56:16.277Z,3.30
2024-02-15T09:59:04.746Z,3.03
2024-02-15T10:01:54.727Z,3.50
2024-02-15T10:04:46.427Z,3.00
2024-02-15T10:07:36.172Z,3.30
2024-02-15T10:10:26.874Z,2.88
2024-02-15T10:13:16.346Z,2.87
2024-02-15T10:16:18.072Z,2.83
2024-02-15T10:19:11.856Z,2.80
2024-02-15T10:22:08.789Z,3.00
2024-02-15T10:25:13.627Z,2.97
2024-02-15T10:28:08.365Z,2.90
2024-02-15T10:30:57.206Z,2.53
2024-02-15T10:33:46.146Z,2.70
2024-02-15T10:36:35.310Z,2.93
2024-02-15T10:39:25.696Z,3.27
2024-02-15T10:42:16.634Z,2.83
2024-02-15T10:45:06.698Z,2.70
2024-02-15T10:47:55.380Z,2.90
2024-02-15T10:50:44.263Z,2.60
2024-02-15T10:53:34.761Z,2.50
2024-02-15T10:56:30.764Z,2.57
2024-02-15T10:59:21.383Z,2.63
2024-02-15T11:02:28.658Z,2.80
2024-02-15T11:05:22.484Z,2.33
2024-02-15T11:08:12.847Z,2.43
2024-02-15T11:11:06.112Z,2.40
2024-02-15T11:14:26.391Z,2.37
2024-02-15T11:17:50.352Z,2.13
2024-02-15T11:20:57.415Z,2.13
2024-02-15T11:23:46.670Z,2.53
2024-02-15T11:26:51.667Z,2.30
2024-02-15T11:29:55.919Z,2.40
2024-02-15T11:32:51.169Z,2.60
2024-02-15T11:36:07.128Z,2.60
2024-02-15T11:38:55.758Z,2.20
2024-02-15T11:41:44.269Z,2.47
2024-02-15T11:44:33.537Z,2.03
2024-02-15T11:47:23.652Z,2.20
2024-02-15T11:50:16.006Z,2.27
2024-02-15T11:53:07.252Z,2.40
2024-02-15T11:56:03.108Z,2.10
2024-02-15T11:59:03.615Z,2.10
2024-02-15T12:02:09.598Z,2.50
2024-02-15T12:05:17.691Z,2.60
2024-02-15T12:08:23.797Z,2.40
2024-02-15T12:11:33.510Z,2.53
2024-02-15T12:14:39.657Z,2.57
2024-02-15T12:17:47.957Z,2.47
2024-02-15T12:20:37.902Z,3.00
2024-02-15T12:23:26.583Z,2.70
2024-02-15T12:26:16.144Z,2.40
2024-02-15T12:29:04.832Z,2.80
2024-02-15T12:31:54.085Z,2.77
2024-02-15T12:34:45.809Z,2.50
2024-02-15T12:37:35.840Z,2.40
2024-02-15T12:40:26.421Z,2.10
2024-02-15T12:43:14.994Z,2.40
2024-02-15T12:46:03.493Z,2.23
2024-02-15T12:48:54.187Z,2.20
2024-02-15T12:51:43.491Z,2.27
2024-02-15T12:54:33.200Z,2.37
2024-02-15T12:57:21.556Z,2.20
2024-02-15T13:00:15.720Z,2.00
2024-02-15T13:03:06.424Z,1.80
2024-02-15T13:05:55.249Z,2.20
2024-02-15T13:08:46.284Z,1.80
2024-02-15T13:11:36.139Z,1.70
2024-02-15T13:14:24.521Z,1.90
2024-02-15T13:17:12.986Z,2.00
2024-02-15T13:20:05.760Z,1.70
2024-02-15T13:22:54.143Z,2.03
2024-02-15T13:25:44.640Z,1.77
2024-02-15T13:28:35.575Z,1.80
2024-02-15T13:31:24.290Z,1.80
2024-02-15T13:34:13.356Z,1.90
2024-02-15T13:37:02.985Z,1.80
2024-02-15T13:39:52.205Z,1.80
2024-02-15T13:42:40.697Z,1.60
2024-02-15T13:45:34.329Z,1.53
2024-02-15T13:48:25.334Z,1.70
2024-02-15T13:51:14.031Z,1.80
2024-02-15T13:54:02.347Z,1.50
2024-02-15T13:56:50.976Z,1.70
2024-02-15T13:59:39.923Z,1.43
2024-02-15T14:02:29.696Z,1.50
2024-02-15T14:05:21.169Z,1.80
2024-02-15T14:08:12.063Z,1.80
2024-02-15T14:11:00.579Z,1.88
2024-02-15T14:13:49.055Z,1.80
2024-02-15T14:16:37.671Z,1.40
2024-02-15T14:19:27.764Z,1.57
2024-02-15T14:22:17.354Z,1.83
2024-02-15T14:25:07.066Z,1.60
2024-02-15T14:27:57.410Z,1.87
2024-02-15T14:31:03.493Z,1.73
2024-02-15T14:33:52.340Z,1.90
2024-02-15T14:36:43.852Z,1.70
2024-02-15T14:39:32.360Z,1.63
2024-02-15T14:42:22.887Z,1.87
2024-02-15T14:45:12.861Z,1.77
2024-02-15T14:48:01.466Z,1.53
2024-02-15T14:50:52.734Z,1.73
2024-02-15T14:53:42.856Z,1.67
2024-02-15T14:56:38.586Z,1.90
2024-02-15T14:59:27.649Z,1.90
2024-02-15T15:02:16.096Z,1.90
2024-02-15T15:05:21.885Z,1.83
2024-02-15T15:08:27.838Z,1.40
2024-02-15T15:11:34.990Z,1.30
2024-02-15T15:14:23.825Z,1.50
2024-02-15T15:17:13.410Z,1.33
2024-02-15T15:20:02.206Z,1.30
2024-02-15T15:22:50.848Z,1.40
2024-02-15T15:25:41.597Z,1.67
2024-02-15T15:28:31.349Z,1.53
2024-02-15T15:31:21.605Z,1.83
2024-02-15T15:34:10.960Z,1.87
2024-02-15T15:36:59.705Z,1.93
2024-02-15T15:39:48.130Z,1.93
2024-02-15T15:42:37.054Z,2.23
2024-02-15T15:45:27.017Z,1.80
2024-02-15T15:48:15.501Z,2.10
2024-02-15T15:51:06.689Z,1.80
2024-02-15T15:53:56.102Z,1.90
2024-02-15T15:56:44.768Z,1.80
2024-02-15T15:59:33.134Z,1.60
2024-02-15T16:02:23.304Z,1.70
2024-02-15T16:05:13.289Z,2.00
2024-02-15T16:08:01.992Z,1.67
2024-02-15T16:10:50.416Z,2.03
2024-02-15T16:13:38.744Z,2.00
2024-02-15T16:16:27.268Z,2.00
2024-02-15T16:19:17.133Z,2.30
2024-02-15T16:22:06.938Z,2.00
2024-02-15T16:24:55.549Z,2.30
2024-02-15T16:27:45.024Z,2.30
2024-02-15T16:30:34.193Z,2.03
2024-02-15T16:33:23.022Z,1.93
2024-02-15T16:36:13.179Z,2.13
2024-02-15T16:39:01.792Z,1.90
2024-02-15T16:41:51.843Z,1.90
2024-02-15T16:44:41.828Z,2.20
2024-02-15T16:47:30.392Z,2.20
2024-02-15T16:50:20.039Z,1.90
2024-02-15T16:53:10.698Z,2.23
2024-02-15T16:55:59.096Z,1.90
2024-02-15T16:58:47.719Z,2.07
2024-02-15T17:01:39.704Z,2.30
2024-02-15T17:04:28.381Z,2.40
2024-02-15T17:07:17.023Z,2.20
2024-02-15T17:10:07.927Z,2.00
2024-02-15T17:12:56.354Z,2.50
2024-02-15T17:15:44.733Z,2.43
2024-02-15T17:18:34.938Z,2.00
2024-02-15T17:21:24.771Z,2.53
2024-02-15T17:24:14.355Z,2.17
2024-02-15T17:27:04.585Z,2.37
2024-02-15T17:29:53.577Z,2.00
2024-02-15T17:32:43.953Z,2.60
2024-02-15T17:35:33.347Z,2.00
2024-02-15T17:38:21.981Z,2.50
2024-02-15T17:41:11.695Z,2.03
2024-02-15T17:44:03.220Z,2.27
2024-02-15T17:46:52.329Z,2.20
2024-02-15T17:49:40.919Z,2.60
2024-02-15T17:52:29.585Z,2.03
2024-02-15T17:55:20.512Z,2.45
2024-02-15T17:58:09.076Z,2.53
2024-02-15T18:00:59.001Z,2.30
2024-02-15T18:03:47.733Z,2.10
2024-02-15T18:06:36.451Z,2.20
2024-02-15T18:09:25.013Z,2.40
2024-02-15T18:12:13.627Z,2.60
2024-02-15T18:15:02.811Z,2.40
2024-02-15T18:17:54.568Z,2.70
2024-02-15T18:20:43.540Z,2.67
2024-02-15T18:23:32.541Z,2.80
2024-02-15T18:26:21.115Z,2.63
2024-02-15T18:29:12.626Z,2.50
2024-02-15T18:32:01.201Z,2.70
2024-02-15T18:34:51.304Z,2.33
2024-02-15T18:37:41.764Z,2.73
2024-02-15T18:40:32.374Z,2.50
2024-02-15T18:43:21.362Z,2.53
2024-02-15T18:46:10.928Z,2.60
2024-02-15T18:49:01.635Z,2.50
2024-02-15T18:51:52.265Z,2.60
2024-02-15T18:54:43.850Z,2.73
2024-02-15T18:57:32.738Z,2.90
2024-02-15T19:00:31.901Z,2.63
2024-02-15T19:03:26.627Z,2.97
2024-02-15T19:06:16.074Z,2.70
2024-02-15T19:09:06.009Z,2.43
2024-02-15T19:11:55.493Z,2.60
2024-02-15T19:14:44.510Z,2.60
2024-02-15T19:17:33.680Z,2.43
2024-02-15T19:20:22.440Z,2.70
2024-02-15T19:23:10.868Z,2.73
2024-02-15T19:26:00.735Z,2.60
2024-02-15T19:28:49.680Z,2.50
2024-02-15T19:31:38.411Z,2.72
2024-02-15T19:34:28.328Z,2.53
2024-02-15T19:37:17.690Z,2.57
2024-02-15T19:40:12.377Z,2.67
2024-02-15T19:43:03.034Z,2.40
2024-02-15T19:45:51.358Z,2.63
2024-02-15T19:48:39.890Z,2.80
2024-02-15T19:51:29.715Z,2.50
2024-02-15T19:54:18.191Z,2.97
2024-02-15T19:57:07.746Z,2.83
2024-02-15T19:59:57.985Z,2.73
2024-02-15T20:02:47.166Z,2.77
2024-02-15T20:05:35.776Z,2.70
2024-02-15T20:08:24.216Z,2.80
2024-02-15T20:11:13.490Z,2.50
2024-02-15T20:14:03.207Z,3.03
2024-02-15T20:16:55.850Z,2.80
2024-02-15T20:19:44.420Z,2.80
2024-02-15T20:22:33.098Z,2.77
2024-02-15T20:25:22.268Z,3.10
2024-02-15T20:28:10.979Z,2.83
2024-02-15T20:31:00.513Z,2.63
2024-02-15T20:33:50.680Z,3.10
2024-02-15T20:36:39.151Z,3.10
2024-02-15T20:39:28.294Z,2.60
2024-02-15T20:42:17.466Z,2.73
2024-02-15T20:45:06.576Z,3.30
2024-02-15T20:47:55.100Z,2.83
2024-02-15T20:50:45.064Z,2.93
2024-02-15T20:53:33.416Z,2.93
2024-02-15T20:56:22.045Z,3.00
2024-02-15T20:59:10.812Z,3.40
2024-02-15T21:02:02.188Z,3.17
2024-02-15T21:04:50.882Z,3.17
2024-02-15T21:07:41.218Z,3.03
2024-02-15T21:10:30.460Z,3.00
2024-02-15T21:13:20.409Z,2.77
2024-02-15T21:16:09.857Z,2.73
2024-02-15T21:18:58.658Z,3.30
2024-02-15T21:21:47.165Z,2.97
2024-02-15T21:24:37.945Z,2.60
2024-02-15T21:27:26.356Z,2.33
2024-02-15T21:30:15.592Z,2.57
2024-02-15T21:33:06.824Z,2.33
2024-02-15T21:35:55.436Z,2.70
2024-02-15T21:38:45.950Z,2.60
2024-02-15T21:41:36.388Z,2.83
2024-02-15T21:44:24.953Z,2.80
2024-02-15T21:47:14.553Z,2.97
2024-02-15T21:50:06.181Z,2.97
2024-02-15T21:52:54.773Z,3.13
2024-02-15T21:55:43.153Z,2.90
2024-02-15T21:58:33.039Z,3.10
2024-02-15T22:01:21.629Z,2.90
2024-02-15T22:04:10.274Z,3.30
2024-02-15T22:06:58.766Z,2.80
2024-02-15T22:09:47.225Z,2.92
2024-02-15T22:12:35.598Z,3.40
2024-02-15T22:15:26.635Z,3.30
2024-02-15T22:18:15.690Z,2.70
2024-02-15T22:21:04.512Z,3.70
2024-02-15T22:23:53.182Z,3.00
2024-02-15T22:26:42.431Z,3.27
2024-02-15T22:29:31.401Z,3.37
2024-02-15T22:32:23.203Z,3.40
2024-02-15T22:35:12.784Z,3.40
2024-02-15T22:38:01.370Z,3.58
2024-02-15T22:40:49.834Z,3.40
2024-02-15T22:43:38.108Z,3.27
2024-02-15T22:46:28.007Z,3.60
2024-02-15T22:49:21.186Z,3.50
2024-02-15T22:52:09.750Z,3.70
2024-02-15T22:54:58.235Z,3.60
2024-02-15T22:57:48.049Z,3.30
2024-02-15T23:00:37.782Z,4.07
2024-02-15T23:03:27.124Z,3.53
2024-02-15T23:06:17.054Z,3.60
2024-02-15T23:09:05.838Z,3.60
2024-02-15T23:11:55.387Z,3.80
2024-02-15T23:14:43.912Z,3.73
2024-02-15T23:17:32.556Z,3.57
2024-02-15T23:20:21.134Z,3.90
2024-02-15T23:23:11.248Z,4.03
2024-02-15T23:26:00.806Z,3.90
2024-02-15T23:28:49.300Z,3.77
2024-02-15T23:31:37.734Z,3.90
2024-02-15T23:34:26.842Z,3.97
2024-02-15T23:37:32.482Z,3.90
2024-02-15T23:40:24.069Z,3.85
2024-02-15T23:43:13.283Z,3.97
2024-02-15T23:46:01.657Z,4.10
2024-02-15T23:48:50.047Z,3.80
2024-02-15T23:51:38.684Z,3.40
2024-02-15T23:54:27.254Z,3.60
2024-02-15T23:57:17.297Z,3.40
